首页
METAR-TAF:

METAR-TAF

机场 :

Churchill, 曼尼托巴, 加拿大

纬度: 58-44N, 经度: 094-04W, 海拔: 28米

当前天气观测

该预报发布于46分钟前的06:35 UTC
风速4节,风向西
温度 5°C
湿度 100%
气压 1025 hPa
能見度: 0.4公里
多云层高于100英尺

METAR: CYYQ 220635Z 26004KT 1/4SM R33/1600V2000FT/N FG BKN001 05/05 A3028 RMK SC6 SLP257

时间: 02:21 (07:21 UTC)

预报

该预报发布于30分钟前的06:51 UTC
预报有效从22日的 06点(UTC)到 23日的 06点(UTC)
风速3节,风向多变
能見度: 0.4公里
层高于200英尺
短暂存在
从 22日的 06点(UTC)到 22日的 13点(UTC)
能見度: 9.7公里
散云层高于200英尺
轻雾
成为
从 22日的 11点(UTC)到 22日的 13点(UTC)
风速7节,风向西
从 22日的 1300点(UTC)
风速10节,风向西
能見度: 10公里
少量云层高于500英尺
多云层高于25000英尺
从 22日的 2300点(UTC)
风速10节,风向西南
能見度: 10公里
多云层高于18000英尺

TAF: CYYQ 220651Z 2206/2306 VRB03KT 1/4SM FG VV002 TEMPO 2206/2213 6SM BR SCT002 BECMG 2211/2213 26007KT FM221300 26010KT P6SM FEW005 BKN250 FM222300 22010KT P6SM BKN180 RMK NXT FCST BY 221200Z

超过4000个机场的气象观测和天气预报(METAR&TAF报告)。

可查询的气象台以黄色和红色小点在地图上表示。

将鼠标移到小点上方,可查看气象台名称。

然后点击查看天气观测和预报。

如需切换地图:点击带黑十字的绿色按钮放大地图;点击带横线的绿色按钮缩小地图;或者点击绿色箭头查看邻近地区的地图。


METAR-TAF: